createdAt,value
2019-01-29T00:01:58.263Z,2.08
2019-01-29T00:04:24.675Z,2.01
2019-01-29T00:06:50.925Z,1.93
2019-01-29T00:09:17.339Z,1.93
2019-01-29T00:11:43.726Z,1.90
2019-01-29T00:14:10.473Z,1.87
2019-01-29T00:16:37.050Z,1.88
2019-01-29T00:19:03.618Z,1.88
2019-01-29T00:21:30.355Z,1.94
2019-01-29T00:23:56.897Z,1.94
2019-01-29T00:26:24.188Z,1.88
2019-01-29T00:28:50.939Z,1.85
2019-01-29T00:31:17.603Z,1.80
2019-01-29T00:33:43.997Z,1.78
2019-01-29T00:36:10.669Z,1.75
2019-01-29T00:38:37.275Z,1.65
2019-01-29T00:41:04.022Z,1.64
2019-01-29T00:43:30.527Z,1.55
2019-01-29T00:46:03.008Z,1.58
2019-01-29T00:48:29.740Z,1.54
2019-01-29T00:50:56.494Z,1.53
2019-01-29T00:53:22.970Z,1.47
2019-01-29T00:55:49.577Z,1.47
2019-01-29T00:58:16.042Z,1.43
2019-01-29T01:00:42.406Z,1.48
2019-01-29T01:03:08.812Z,1.53
2019-01-29T01:05:35.252Z,1.55
2019-01-29T01:08:01.957Z,1.53
2019-01-29T01:10:28.828Z,1.45
2019-01-29T01:12:55.438Z,1.43
2019-01-29T01:15:22.414Z,1.43
2019-01-29T01:17:49.118Z,1.43
2019-01-29T01:20:17.347Z,1.47
2019-01-29T01:22:50.791Z,1.50
2019-01-29T01:25:13.718Z,1.42
2019-01-29T01:27:40.154Z,1.58
2019-01-29T01:30:12.813Z,1.56
2019-01-29T01:32:39.665Z,1.81
2019-01-29T01:35:06.503Z,1.69
2019-01-29T01:37:33.177Z,1.72
2019-01-29T01:39:59.675Z,1.76
2019-01-29T01:42:26.734Z,1.81
2019-01-29T01:44:53.343Z,1.83
2019-01-29T01:47:20.219Z,1.90
2019-01-29T01:49:46.826Z,1.92
2019-01-29T01:52:13.673Z,1.85
2019-01-29T01:54:40.457Z,1.83
2019-01-29T01:57:06.777Z,1.84
2019-01-29T01:59:33.282Z,1.86
2019-01-29T02:02:00.157Z,1.85
2019-01-29T02:04:26.982Z,1.86
2019-01-29T02:06:53.997Z,1.81
2019-01-29T02:09:20.673Z,1.84
2019-01-29T02:11:48.000Z,1.88
2019-01-29T02:14:14.799Z,1.97
2019-01-29T02:16:41.538Z,1.88
2019-01-29T02:19:08.081Z,1.82
2019-01-29T02:21:34.503Z,1.85
2019-01-29T02:24:01.018Z,1.97
2019-01-29T02:26:27.749Z,1.87
2019-01-29T02:28:54.590Z,1.92
2019-01-29T02:31:21.537Z,1.83
2019-01-29T02:33:48.163Z,1.79
2019-01-29T02:36:14.903Z,1.83
2019-01-29T02:38:41.596Z,1.85
2019-01-29T02:41:08.251Z,1.80
2019-01-29T02:43:35.126Z,1.77
2019-01-29T02:46:09.955Z,1.68
2019-01-29T02:48:40.275Z,1.75
2019-01-29T02:51:44.340Z,1.80
2019-01-29T02:55:07.453Z,1.66
2019-01-29T03:01:34.130Z,1.63
2019-01-29T03:08:00.023Z,1.45
2019-01-29T03:13:11.084Z,1.40
2019-01-29T03:15:37.679Z,1.50
2019-01-29T03:18:04.661Z,1.48
2019-01-29T03:20:30.904Z,1.40
2019-01-29T03:22:57.256Z,1.41
2019-01-29T03:25:23.767Z,1.35
2019-01-29T03:27:50.460Z,1.29
2019-01-29T03:30:21.447Z,1.37
2019-01-29T03:32:48.377Z,1.28
2019-01-29T03:35:28.007Z,1.17
2019-01-29T03:38:02.175Z,1.16
2019-01-29T03:40:29.278Z,1.22
2019-01-29T03:42:56.132Z,1.10
2019-01-29T03:45:23.171Z,1.14
2019-01-29T03:47:49.909Z,1.13
2019-01-29T03:50:18.341Z,1.08
2019-01-29T03:52:44.954Z,0.98
2019-01-29T03:55:11.782Z,1.03
2019-01-29T03:57:38.642Z,1.05
2019-01-29T04:00:20.643Z,1.03
2019-01-29T04:02:47.557Z,1.09
2019-01-29T04:05:14.426Z,0.99
2019-01-29T04:07:43.945Z,1.06
2019-01-29T04:10:15.597Z,1.04
2019-01-29T04:12:43.065Z,1.02
2019-01-29T04:15:12.526Z,1.03
2019-01-29T04:17:39.905Z,1.05
2019-01-29T04:20:10.513Z,1.08
2019-01-29T04:22:37.096Z,0.98
2019-01-29T04:25:04.747Z,1.06
2019-01-29T04:27:32.070Z,1.02
2019-01-29T04:29:58.810Z,0.92
2019-01-29T04:32:25.477Z,0.83
2019-01-29T04:34:52.202Z,0.86
2019-01-29T04:37:18.936Z,0.79
2019-01-29T04:39:45.559Z,0.76
2019-01-29T04:42:12.058Z,0.81
2019-01-29T04:44:38.671Z,2.86
2019-01-29T04:47:05.683Z,3.29
2019-01-29T04:49:32.255Z,2.17
2019-01-29T04:51:58.980Z,1.45
2019-01-29T04:54:25.919Z,1.28
2019-01-29T04:56:53.164Z,1.23
2019-01-29T04:59:19.493Z,1.19
2019-01-29T05:01:46.240Z,1.27
2019-01-29T05:04:12.872Z,1.17
2019-01-29T05:06:39.538Z,1.10
2019-01-29T05:09:07.453Z,0.96
2019-01-29T05:11:34.451Z,0.92
2019-01-29T05:14:01.496Z,0.92
2019-01-29T05:16:28.186Z,0.93
2019-01-29T05:18:54.622Z,0.97
2019-01-29T05:21:21.362Z,0.95
2019-01-29T05:23:47.719Z,0.98
2019-01-29T05:26:14.389Z,1.04
2019-01-29T05:28:41.227Z,1.04
2019-01-29T05:31:07.891Z,0.95
2019-01-29T05:33:34.779Z,0.89
2019-01-29T05:36:01.646Z,0.91
2019-01-29T05:38:28.750Z,0.83
2019-01-29T05:40:55.623Z,0.89
2019-01-29T05:43:22.637Z,0.80
2019-01-29T05:45:49.480Z,0.83
2019-01-29T05:48:17.393Z,0.87
2019-01-29T05:50:44.220Z,1.02
2019-01-29T05:53:10.726Z,0.98
2019-01-29T05:55:37.395Z,0.94
2019-01-29T05:58:03.933Z,0.96
2019-01-29T06:00:32.224Z,1.04
2019-01-29T06:02:58.736Z,0.94
2019-01-29T06:05:25.486Z,0.82
2019-01-29T06:07:52.414Z,0.84
2019-01-29T06:10:18.927Z,0.80
2019-01-29T06:12:45.716Z,0.68
2019-01-29T06:15:18.047Z,0.69
2019-01-29T06:17:44.811Z,0.71
2019-01-29T06:20:36.580Z,0.77
2019-01-29T06:23:03.430Z,0.68
2019-01-29T06:25:30.633Z,0.54
2019-01-29T06:27:57.330Z,0.64
2019-01-29T06:30:25.388Z,0.60
2019-01-29T06:32:51.993Z,0.66
2019-01-29T06:35:18.810Z,0.50
2019-01-29T06:37:46.488Z,0.61
2019-01-29T06:40:16.094Z,0.68
2019-01-29T06:42:43.020Z,0.63
2019-01-29T06:45:12.479Z,0.45
2019-01-29T06:47:39.379Z,0.46
2019-01-29T06:50:12.038Z,0.05
2019-01-29T06:52:38.854Z,0.09
2019-01-29T06:55:09.373Z,0.08
2019-01-29T06:57:36.442Z,0.13
2019-01-29T07:00:06.942Z,-0.16
2019-01-29T07:02:36.893Z,-0.05
2019-01-29T07:05:05.946Z,-0.13
2019-01-29T07:07:32.653Z,-0.12
2019-01-29T07:10:00.926Z,-0.09
2019-01-29T07:12:27.435Z,-0.03
2019-01-29T07:14:54.246Z,-0.20
2019-01-29T07:17:23.027Z,-0.19
2019-01-29T07:19:49.821Z,-0.20
2019-01-29T07:22:17.143Z,-0.30
2019-01-29T07:24:44.122Z,-0.16
2019-01-29T07:27:11.167Z,-0.13
2019-01-29T07:29:38.328Z,-0.19
2019-01-29T07:32:05.669Z,-0.12
2019-01-29T07:34:32.499Z,-0.12
2019-01-29T07:36:59.469Z,-0.05
2019-01-29T07:39:26.258Z,-0.08
2019-01-29T07:41:53.102Z,0.02
2019-01-29T07:44:19.690Z,-0.00
2019-01-29T07:46:46.578Z,-0.06
2019-01-29T07:49:13.206Z,0.08
2019-01-29T07:51:39.674Z,-0.02
2019-01-29T07:54:06.289Z,-0.03
2019-01-29T07:56:33.184Z,-0.00
2019-01-29T07:58:59.570Z,0.02
2019-01-29T08:01:26.112Z,0.06
2019-01-29T08:03:52.542Z,-0.05
2019-01-29T08:06:19.195Z,-0.07
2019-01-29T08:08:45.813Z,-0.05
2019-01-29T08:11:12.977Z,0.09
2019-01-29T08:13:39.539Z,0.05
2019-01-29T08:16:06.152Z,0.01
2019-01-29T08:18:32.802Z,0.20
2019-01-29T08:20:59.752Z,0.12
2019-01-29T08:23:26.489Z,0.08
2019-01-29T08:25:53.155Z,0.17
2019-01-29T08:28:20.077Z,0.36
2019-01-29T08:30:46.497Z,0.38
2019-01-29T08:33:13.637Z,0.35
2019-01-29T08:35:41.593Z,0.35
2019-01-29T08:38:08.655Z,0.36
2019-01-29T08:40:35.516Z,0.42
2019-01-29T08:43:02.135Z,0.51
2019-01-29T08:45:28.998Z,0.58
2019-01-29T08:47:55.329Z,0.60
2019-01-29T08:50:25.738Z,0.87
2019-01-29T08:52:52.286Z,0.81
2019-01-29T08:55:19.279Z,0.79
2019-01-29T08:57:45.864Z,0.82
2019-01-29T09:00:17.929Z,0.93
2019-01-29T09:02:44.420Z,1.12
2019-01-29T09:05:30.470Z,1.19
2019-01-29T09:08:00.879Z,1.20
2019-01-29T09:10:28.690Z,1.36
2019-01-29T09:13:00.398Z,1.35
2019-01-29T09:15:27.073Z,1.43
2019-01-29T09:17:53.697Z,1.41
2019-01-29T09:20:21.482Z,1.61
2019-01-29T09:22:48.401Z,1.79
2019-01-29T09:25:21.027Z,1.97
2019-01-29T09:27:43.211Z,1.96
2019-01-29T09:30:19.995Z,2.11
2019-01-29T09:32:46.527Z,1.95
2019-01-29T09:35:13.314Z,1.88
2019-01-29T09:37:39.899Z,1.85
2019-01-29T09:40:10.117Z,2.02
2019-01-29T09:42:36.648Z,2.12
2019-01-29T09:45:05.281Z,2.08
2019-01-29T09:47:31.893Z,2.08
2019-01-29T09:49:58.427Z,2.09
2019-01-29T09:52:25.099Z,2.25
2019-01-29T09:54:51.621Z,2.43
2019-01-29T09:57:18.246Z,2.38
2019-01-29T09:59:44.754Z,2.41
2019-01-29T10:02:11.314Z,2.36
2019-01-29T10:04:37.908Z,2.49
2019-01-29T10:07:04.550Z,2.58
2019-01-29T10:09:31.273Z,2.72
2019-01-29T10:11:57.984Z,2.70
2019-01-29T10:14:24.554Z,2.69
2019-01-29T10:16:51.047Z,2.69
2019-01-29T10:19:17.795Z,2.73
2019-01-29T10:21:44.644Z,2.85
2019-01-29T10:24:10.952Z,2.66
2019-01-29T10:26:37.393Z,2.80
2019-01-29T10:29:03.790Z,2.88
2019-01-29T10:31:30.523Z,2.89
2019-01-29T10:33:57.293Z,2.93
2019-01-29T10:36:23.932Z,2.91
2019-01-29T10:38:50.565Z,2.97
2019-01-29T10:41:17.216Z,3.05
2019-01-29T10:43:44.493Z,2.96
2019-01-29T10:46:11.004Z,2.95
2019-01-29T10:48:37.673Z,3.02
2019-01-29T10:51:04.250Z,3.02
2019-01-29T10:53:30.618Z,3.04
2019-01-29T10:55:57.296Z,3.17
2019-01-29T10:58:23.860Z,3.08
2019-01-29T11:00:50.227Z,3.23
2019-01-29T11:03:19.663Z,3.21
2019-01-29T11:05:46.193Z,3.25
2019-01-29T11:08:12.755Z,3.43
2019-01-29T11:10:39.443Z,3.38
2019-01-29T11:13:07.308Z,3.40
2019-01-29T11:15:37.256Z,3.47
2019-01-29T11:18:07.399Z,3.53
2019-01-29T11:20:33.721Z,3.44
2019-01-29T11:23:00.092Z,3.58
2019-01-29T11:25:28.855Z,3.69
2019-01-29T11:27:55.392Z,3.70
2019-01-29T11:30:25.179Z,3.70
2019-01-29T11:32:52.014Z,3.99
2019-01-29T11:35:18.423Z,3.80
2019-01-29T11:37:44.747Z,3.82
2019-01-29T11:40:14.860Z,4.02
2019-01-29T11:42:41.550Z,4.21
2019-01-29T11:45:11.697Z,3.99
2019-01-29T11:47:38.415Z,4.02
2019-01-29T11:50:07.910Z,4.08
2019-01-29T11:52:34.409Z,4.45
2019-01-29T11:55:01.222Z,4.34
2019-01-29T11:57:27.859Z,4.12
2019-01-29T11:59:54.609Z,4.24
2019-01-29T12:02:28.228Z,4.41
2019-01-29T12:04:49.851Z,4.20
2019-01-29T12:07:16.699Z,4.13
2019-01-29T12:09:43.399Z,4.16
2019-01-29T12:12:09.837Z,4.21
2019-01-29T12:14:36.655Z,4.33
2019-01-29T12:17:03.308Z,4.41
2019-01-29T12:19:29.820Z,4.23
2019-01-29T12:21:56.416Z,4.08
2019-01-29T12:24:23.107Z,3.99
2019-01-29T12:26:49.758Z,4.04
2019-01-29T12:29:16.305Z,3.92
2019-01-29T12:31:42.849Z,3.89
2019-01-29T12:34:09.506Z,3.82
2019-01-29T12:36:36.137Z,3.90
2019-01-29T12:39:05.779Z,3.73
2019-01-29T12:41:32.261Z,3.89
2019-01-29T12:44:02.352Z,3.86
2019-01-29T12:46:28.913Z,3.85
2019-01-29T12:48:55.511Z,3.62
2019-01-29T12:51:24.052Z,4.00
2019-01-29T12:53:50.656Z,4.18
2019-01-29T12:56:21.519Z,4.36
2019-01-29T12:58:45.413Z,4.16
2019-01-29T13:01:11.952Z,4.24
2019-01-29T13:03:38.462Z,4.29
2019-01-29T13:06:05.205Z,4.16
2019-01-29T13:08:31.609Z,4.01
2019-01-29T13:10:57.877Z,4.03
2019-01-29T13:13:24.764Z,3.74
2019-01-29T13:15:51.235Z,3.84
2019-01-29T13:18:17.636Z,3.79
2019-01-29T13:20:43.937Z,3.62
2019-01-29T13:23:10.623Z,3.57
2019-01-29T13:25:37.724Z,3.56
2019-01-29T13:28:04.325Z,3.59
2019-01-29T13:30:33.799Z,3.64
2019-01-29T13:33:00.584Z,3.84
2019-01-29T13:35:29.977Z,3.97
2019-01-29T13:37:56.495Z,3.74
2019-01-29T13:40:23.183Z,3.82
2019-01-29T13:42:50.047Z,3.82
2019-01-29T13:45:17.080Z,3.70
2019-01-29T13:47:43.686Z,3.87
2019-01-29T13:50:19.704Z,4.16
2019-01-29T13:52:46.179Z,4.33
2019-01-29T13:55:14.902Z,4.12
2019-01-29T13:57:41.947Z,4.29
2019-01-29T14:00:20.444Z,4.30
2019-01-29T14:02:46.952Z,4.07
2019-01-29T14:05:13.554Z,4.28
2019-01-29T14:07:40.257Z,4.03
2019-01-29T14:10:10.927Z,4.01
2019-01-29T14:12:37.439Z,4.01
2019-01-29T14:15:07.018Z,4.17
2019-01-29T14:17:33.512Z,4.23
2019-01-29T14:19:59.964Z,4.23
2019-01-29T14:22:26.648Z,4.18
2019-01-29T14:24:52.958Z,3.90
2019-01-29T14:27:19.544Z,3.93
2019-01-29T14:29:46.277Z,3.98
2019-01-29T14:32:12.849Z,3.91
2019-01-29T14:34:39.273Z,3.84
2019-01-29T14:37:05.603Z,3.80
2019-01-29T14:39:36.021Z,3.90
2019-01-29T14:42:02.576Z,3.88
2019-01-29T14:44:29.036Z,3.75
2019-01-29T14:46:55.316Z,3.73
2019-01-29T14:49:21.707Z,3.83
2019-01-29T14:51:47.957Z,3.73
2019-01-29T14:54:14.346Z,3.74
2019-01-29T14:56:40.633Z,3.87
2019-01-29T14:59:07.022Z,3.89
2019-01-29T15:01:33.529Z,3.86
2019-01-29T15:03:59.940Z,3.71
2019-01-29T15:06:32.251Z,3.76
2019-01-29T15:08:54.606Z,3.72
2019-01-29T15:11:21.044Z,3.75
2019-01-29T15:13:47.437Z,3.72
2019-01-29T15:16:16.993Z,3.77
2019-01-29T15:18:45.397Z,3.70
2019-01-29T15:21:11.701Z,3.68
2019-01-29T15:23:38.106Z,3.72
2019-01-29T15:26:04.654Z,3.59
2019-01-29T15:28:31.121Z,3.61
2019-01-29T15:30:58.254Z,3.60
2019-01-29T15:33:24.968Z,3.65
2019-01-29T15:35:51.616Z,3.48
2019-01-29T15:38:18.355Z,3.43
2019-01-29T15:40:44.918Z,3.50
2019-01-29T15:43:11.594Z,3.48
2019-01-29T15:45:38.442Z,3.54
2019-01-29T15:48:05.016Z,3.41
2019-01-29T15:50:35.311Z,3.49
2019-01-29T15:53:01.903Z,3.60
2019-01-29T15:55:28.249Z,3.94
2019-01-29T15:57:55.081Z,3.60
2019-01-29T16:00:24.806Z,3.68
2019-01-29T16:02:51.386Z,3.53
2019-01-29T16:05:27.889Z,3.43
2019-01-29T16:07:55.024Z,3.45
2019-01-29T16:10:46.847Z,3.55
2019-01-29T16:13:13.710Z,3.33
2019-01-29T16:15:41.154Z,3.36
2019-01-29T16:18:08.084Z,3.21
2019-01-29T16:20:34.752Z,3.12
2019-01-29T16:23:01.085Z,3.03
2019-01-29T16:25:29.388Z,3.03
2019-01-29T16:27:55.647Z,2.98
2019-01-29T16:30:25.937Z,3.12
2019-01-29T16:32:52.644Z,3.27
2019-01-29T16:35:22.564Z,3.31
2019-01-29T16:37:49.034Z,3.19
2019-01-29T16:40:18.939Z,3.16
2019-01-29T16:42:45.642Z,3.08
2019-01-29T16:45:24.939Z,3.06
2019-01-29T16:47:52.394Z,3.10
2019-01-29T16:50:21.254Z,3.00
2019-01-29T16:52:47.807Z,3.09
2019-01-29T16:55:16.596Z,3.02
2019-01-29T16:57:43.926Z,2.99
2019-01-29T17:00:22.995Z,3.19
2019-01-29T17:02:49.874Z,3.01
2019-01-29T17:05:16.433Z,3.02
2019-01-29T17:07:43.401Z,3.03
2019-01-29T17:10:13.444Z,2.98
2019-01-29T17:12:40.161Z,2.99
2019-01-29T17:15:10.777Z,2.94
2019-01-29T17:17:37.596Z,3.02
2019-01-29T17:20:14.435Z,2.95
2019-01-29T17:22:41.574Z,2.90
2019-01-29T17:25:07.846Z,2.82
2019-01-29T17:27:40.153Z,2.71
2019-01-29T17:30:06.786Z,2.52
2019-01-29T17:32:33.211Z,2.51
2019-01-29T17:34:59.682Z,2.45
2019-01-29T17:37:26.286Z,2.42
2019-01-29T17:39:53.024Z,2.51
2019-01-29T17:42:27.477Z,2.38
2019-01-29T17:44:53.820Z,2.31
2019-01-29T17:47:20.339Z,2.27
2019-01-29T17:49:47.343Z,2.26
2019-01-29T17:52:13.910Z,2.24
2019-01-29T17:57:51.652Z,2.13
2019-01-29T18:00:23.468Z,2.05
2019-01-29T18:02:52.266Z,2.05
2019-01-29T18:08:54.425Z,2.10
2019-01-29T18:11:20.623Z,2.05
2019-01-29T18:13:48.077Z,1.98
2019-01-29T18:16:14.722Z,1.99
2019-01-29T18:18:41.843Z,2.02
2019-01-29T18:21:08.556Z,1.99
2019-01-29T18:23:35.342Z,2.01
2019-01-29T18:29:26.037Z,1.99
2019-01-29T18:31:52.960Z,1.96
2019-01-29T18:34:25.873Z,1.93
2019-01-29T18:36:55.982Z,1.92
2019-01-29T18:39:22.731Z,1.97
2019-01-29T18:41:49.232Z,1.98
2019-01-29T18:44:15.651Z,1.88
2019-01-29T18:49:53.391Z,1.91
2019-01-29T18:52:19.931Z,1.93
2019-01-29T18:54:46.434Z,1.80
2019-01-29T19:00:37.422Z,1.67
2019-01-29T19:03:04.212Z,1.77
2019-01-29T19:05:30.568Z,1.77
2019-01-29T19:07:57.059Z,1.70
2019-01-29T19:13:58.968Z,1.82
2019-01-29T19:19:49.437Z,1.79
2019-01-29T19:25:17.216Z,1.56
2019-01-29T19:27:43.759Z,1.58
2019-01-29T19:33:34.455Z,1.66
2019-01-29T19:36:01.157Z,1.47
2019-01-29T19:38:28.589Z,1.61
2019-01-29T19:40:55.611Z,1.50
2019-01-29T19:43:22.293Z,1.49
2019-01-29T19:45:49.019Z,1.51
2019-01-29T19:48:15.662Z,1.49
2019-01-29T19:50:42.152Z,1.50
2019-01-29T19:53:08.565Z,1.35
2019-01-29T19:55:35.148Z,1.41
2019-01-29T19:58:08.653Z,1.48
2019-01-29T20:04:05.517Z,1.37
2019-01-29T20:06:32.088Z,1.35
2019-01-29T20:08:58.396Z,1.48
2019-01-29T20:11:25.099Z,1.35
2019-01-29T20:13:51.685Z,1.42
2019-01-29T20:16:18.188Z,1.53
2019-01-29T20:18:44.836Z,1.47
2019-01-29T20:24:46.824Z,1.23
2019-01-29T20:27:13.624Z,1.16
2019-01-29T20:29:40.040Z,1.18
2019-01-29T20:32:06.581Z,1.23
2019-01-29T20:34:33.415Z,1.05
2019-01-29T20:36:59.885Z,1.08
2019-01-29T20:39:34.734Z,0.97
2019-01-29T20:41:55.337Z,0.93
2019-01-29T20:44:22.101Z,0.95
2019-01-29T20:46:48.805Z,0.88
2019-01-29T20:49:15.455Z,0.93
2019-01-29T20:51:41.895Z,0.84
2019-01-29T20:54:08.443Z,0.88
2019-01-29T20:56:34.834Z,0.78
2019-01-29T20:59:01.409Z,0.83
2019-01-29T21:01:28.139Z,0.81
2019-01-29T21:03:54.533Z,0.80
2019-01-29T21:06:21.023Z,0.87
2019-01-29T21:08:47.537Z,0.79
2019-01-29T21:11:14.041Z,0.76
2019-01-29T21:13:40.625Z,0.78
2019-01-29T21:16:07.094Z,0.77
2019-01-29T21:18:33.547Z,0.60
2019-01-29T21:21:00.151Z,0.72
2019-01-29T21:26:37.737Z,0.72
2019-01-29T21:29:04.749Z,0.64
2019-01-29T21:31:31.165Z,0.78
2019-01-29T21:33:57.701Z,0.68
2019-01-29T21:36:24.261Z,0.72
2019-01-29T21:38:50.723Z,0.54
2019-01-29T21:41:17.185Z,0.78
2019-01-29T21:43:43.607Z,1.08
2019-01-29T21:46:10.142Z,0.95
2019-01-29T21:48:36.454Z,0.95
2019-01-29T21:51:03.123Z,0.88
2019-01-29T21:53:29.715Z,0.77
2019-01-29T21:55:56.254Z,0.64
2019-01-29T21:58:22.975Z,0.46
2019-01-29T22:00:50.361Z,0.34
2019-01-29T22:03:16.999Z,0.34
2019-01-29T22:05:43.533Z,0.37
2019-01-29T22:08:10.183Z,0.30
2019-01-29T22:10:36.476Z,0.44
2019-01-29T22:13:04.203Z,0.60
2019-01-29T22:15:30.527Z,0.40
2019-01-29T22:17:56.862Z,0.24
2019-01-29T22:20:28.997Z,0.34
2019-01-29T22:22:55.566Z,0.44
2019-01-29T22:25:23.120Z,0.43
2019-01-29T22:27:49.648Z,0.38
2019-01-29T22:30:25.747Z,0.32
2019-01-29T22:32:52.321Z,0.21
2019-01-29T22:35:19.038Z,0.21
2019-01-29T22:37:45.388Z,0.17
2019-01-29T22:40:23.034Z,0.21
2019-01-29T22:42:49.610Z,0.32
2019-01-29T22:45:17.067Z,0.21
2019-01-29T22:47:44.430Z,0.18
2019-01-29T22:50:19.875Z,0.22
2019-01-29T22:52:47.078Z,0.19
2019-01-29T22:55:13.985Z,0.15
2019-01-29T22:57:40.551Z,0.16
2019-01-29T23:00:15.947Z,0.18
2019-01-29T23:02:42.485Z,0.29
2019-01-29T23:05:09.178Z,0.23
2019-01-29T23:07:36.266Z,0.17
2019-01-29T23:12:43.230Z,0.10
2019-01-29T23:15:17.426Z,0.05
2019-01-29T23:17:44.700Z,0.05
2019-01-29T23:20:14.198Z,-0.09
2019-01-29T23:22:40.804Z,-0.24
2019-01-29T23:25:08.944Z,-0.21
2019-01-29T23:27:35.452Z,-0.01
2019-01-29T23:30:03.765Z,-0.09
2019-01-29T23:32:30.372Z,-0.15
2019-01-29T23:34:56.675Z,-0.01
2019-01-29T23:37:22.934Z,-0.19
2019-01-29T23:39:49.363Z,-0.12
2019-01-29T23:42:15.849Z,-0.24
2019-01-29T23:44:42.473Z,-0.24
2019-01-29T23:47:09.199Z,-0.29
2019-01-29T23:49:35.788Z,-0.26
2019-01-29T23:52:02.317Z,-0.35
2019-01-29T23:54:28.831Z,-0.32
2019-01-29T23:56:55.351Z,-0.29
2019-01-29T23:59:22.095Z,-0.32
